This is the latest recevied weather packets stored in our database for station/object DM4XI-13. If no packets are shown the sender has not sent any weather packets the latest 10 day(s).
| Time | Temp. | Humidity | Pressure | Rain* | Wind** | Luminosity | Snow |
|---|---|---|---|---|---|---|---|
| 1777370578 | 18.33° C | 31% | 1016.9 hPa | 0 mm | 0.89 m/s, 15° | 599 W/m² | - |
| 1777370517 | 18.33° C | 31% | 1017 hPa | 0 mm | 0.45 m/s, 219° | 598 W/m² | - |
| 1777370457 | 18.33° C | 30% | 1017.1 hPa | 0 mm | 2.24 m/s, 7° | 597 W/m² | - |
| 1777370395 | 18.33° C | 30% | 1017.1 hPa | 0 mm | 1.34 m/s, 196° | 596 W/m² | - |
| 1777370335 | 18.89° C | 30% | 1017 hPa | 0 mm | 1.34 m/s, 47° | 594 W/m² | - |
| 1777370274 | 18.89° C | 31% | 1017 hPa | 0 mm | 1.34 m/s, 81° | 593 W/m² | - |
| 1777370212 | 18.33° C | 29% | 1017 hPa | 0 mm | 1.79 m/s, 356° | 593 W/m² | - |
| 1777370151 | 18.33° C | 31% | 1017 hPa | 0 mm | 0.89 m/s, 312° | 592 W/m² | - |
| 1777370091 | 18.33° C | 32% | 1017.1 hPa | 0 mm | 2.24 m/s, 160° | 592 W/m² | - |
| 1777370029 | 18.33° C | 32% | 1017.1 hPa | 0 mm | 0.89 m/s, 40° | 590 W/m² | - |
| 1777369969 | 18.33° C | 31% | 1017 hPa | 0 mm | 2.24 m/s, 30° | 589 W/m² | - |
| 1777369907 | 17.78° C | 31% | 1017 hPa | 0 mm | 1.79 m/s, 101° | 588 W/m² | - |
| 1777369846 | 17.78° C | 31% | 1017 hPa | 0 mm | 0.89 m/s, 50° | 585 W/m² | - |
| 1777369785 | 17.78° C | 30% | 1017.3 hPa | 0 mm | 2.24 m/s, 121° | 584 W/m² | - |
| 1777369724 | 17.78° C | 31% | 1017.1 hPa | 0 mm | 1.34 m/s, 112° | 582 W/m² | - |
| 1777369663 | 17.78° C | 32% | 1017.1 hPa | 0 mm | 1.34 m/s, 356° | 580 W/m² | - |
| 1777369602 | 17.78° C | 30% | 1017.2 hPa | 0 mm | 2.24 m/s, 148° | 580 W/m² | - |
| 1777369542 | 17.78° C | 33% | 1017.2 hPa | 0 mm | 1.79 m/s, 112° | 577 W/m² | - |
| 1777369480 | 17.78° C | 34% | 1017.2 hPa | 0 mm | 0.45 m/s, 182° | 575 W/m² | - |
| 1777369419 | 17.78° C | 32% | 1017.1 hPa | 0 mm | 1.34 m/s, 63° | 572 W/m² | - |
| 1777369359 | 17.78° C | 31% | 1017.1 hPa | 0 mm | 1.34 m/s, 46° | 572 W/m² | - |
| 1777369297 | 17.78° C | 32% | 1017.2 hPa | 0 mm | 0.89 m/s, 0° | 568 W/m² | - |
| 1777369237 | 17.78° C | 31% | 1017.2 hPa | 0 mm | 0.89 m/s, 229° | 569 W/m² | - |
| 1777369175 | 17.78° C | 32% | 1017.1 hPa | 0 mm | 0.45 m/s, 110° | 568 W/m² | - |
| 1777369115 | 17.78° C | 31% | 1017.2 hPa | 0 mm | 1.34 m/s, 137° | 566 W/m² | - |
* Rain latest hour (hover to see other rain measurements)
** Current wind speed in m/s (hover to see current wind gust speed)